sensor_id;sensor_type;location;lat;lon;timestamp;temperature;humidity
66128;DHT22;52925;52.436;-1.952;2022-09-17T16:07:32;18.40;41.80
66128;DHT22;52925;52.436;-1.952;2022-09-17T21:37:15;15.40;55.00
66128;DHT22;52925;52.436;-1.952;2022-09-17T21:38:36;15.40;55.00
66128;DHT22;52925;52.436;-1.952;2022-09-17T21:39:56;15.40;55.10
66128;DHT22;52925;52.436;-1.952;2022-09-17T21:41:18;15.40;55.10
66128;DHT22;52925;52.436;-1.952;2022-09-17T21:42:39;15.40;55.00
66128;DHT22;52925;52.436;-1.952;2022-09-17T21:43:59;15.40;55.10
66128;DHT22;52925;52.436;-1.952;2022-09-17T21:45:20;15.40;55.00
66128;DHT22;52925;52.436;-1.952;2022-09-17T21:46:40;15.40;55.00
66128;DHT22;52925;52.436;-1.952;2022-09-17T21:48:02;15.40;55.00
66128;DHT22;52925;52.436;-1.952;2022-09-17T21:49:21;15.40;55.00
66128;DHT22;52925;52.436;-1.952;2022-09-17T21:50:42;15.40;55.10
66128;DHT22;52925;52.436;-1.952;2022-09-17T21:52:02;15.40;55.20
66128;DHT22;52925;52.436;-1.952;2022-09-17T21:53:24;15.40;55.30
66128;DHT22;52925;52.436;-1.952;2022-09-17T21:54:44;15.40;55.30
66128;DHT22;52925;52.436;-1.952;2022-09-17T21:56:06;15.40;55.40
66128;DHT22;52925;52.436;-1.952;2022-09-17T21:57:27;15.30;55.30
66128;DHT22;52925;52.436;-1.952;2022-09-17T21:58:50;15.30;55.50
66128;DHT22;52925;52.436;-1.952;2022-09-17T22:00:11;15.30;55.40
66128;DHT22;52925;52.436;-1.952;2022-09-17T22:01:34;15.30;55.40
66128;DHT22;52925;52.436;-1.952;2022-09-17T22:02:58;15.30;55.50
66128;DHT22;52925;52.436;-1.952;2022-09-17T22:04:19;15.30;55.40
66128;DHT22;52925;52.436;-1.952;2022-09-17T22:05:41;15.40;55.50
66128;DHT22;52925;52.436;-1.952;2022-09-17T22:07:01;15.30;55.50
66128;DHT22;52925;52.436;-1.952;2022-09-17T22:08:21;15.30;55.60
66128;DHT22;52925;52.436;-1.952;2022-09-17T22:09:43;15.30;55.70
66128;DHT22;52925;52.436;-1.952;2022-09-17T22:11:05;15.30;55.70
66128;DHT22;52925;52.436;-1.952;2022-09-17T22:12:28;15.30;55.70
66128;DHT22;52925;52.436;-1.952;2022-09-17T22:13:54;15.20;55.70
66128;DHT22;52925;52.436;-1.952;2022-09-17T22:15:14;15.30;55.80
66128;DHT22;52925;52.436;-1.952;2022-09-17T22:16:36;15.30;55.90
66128;DHT22;52925;52.436;-1.952;2022-09-17T22:17:57;15.20;55.90
66128;DHT22;52925;52.436;-1.952;2022-09-17T22:19:18;15.20;55.90
66128;DHT22;52925;52.436;-1.952;2022-09-17T22:20:39;15.20;55.90
66128;DHT22;52925;52.436;-1.952;2022-09-17T22:22:00;15.30;56.00
66128;DHT22;52925;52.436;-1.952;2022-09-17T22:23:20;15.30;56.00
66128;DHT22;52925;52.436;-1.952;2022-09-17T22:24:40;15.30;56.10
66128;DHT22;52925;52.436;-1.952;2022-09-17T22:26:04;15.30;56.10
66128;DHT22;52925;52.436;-1.952;2022-09-17T22:27:25;15.30;56.00
66128;DHT22;52925;52.436;-1.952;2022-09-17T22:28:46;15.20;56.70
66128;DHT22;52925;52.436;-1.952;2022-09-17T22:30:06;15.30;56.10
66128;DHT22;52925;52.436;-1.952;2022-09-17T22:31:28;15.30;56.10
66128;DHT22;52925;52.436;-1.952;2022-09-17T22:32:48;15.30;56.10
66128;DHT22;52925;52.436;-1.952;2022-09-17T22:34:09;15.30;56.20
66128;DHT22;52925;52.436;-1.952;2022-09-17T22:35:30;15.20;56.20
66128;DHT22;52925;52.436;-1.952;2022-09-17T22:36:50;15.30;56.20
66128;DHT22;52925;52.436;-1.952;2022-09-17T22:38:11;15.20;56.20
66128;DHT22;52925;52.436;-1.952;2022-09-17T22:39:31;15.30;56.30
66128;DHT22;52925;52.436;-1.952;2022-09-17T22:40:51;15.30;56.30
66128;DHT22;52925;52.436;-1.952;2022-09-17T22:42:14;15.20;56.30
66128;DHT22;52925;52.436;-1.952;2022-09-17T22:43:34;15.20;56.40
66128;DHT22;52925;52.436;-1.952;2022-09-17T22:44:54;15.20;56.40
66128;DHT22;52925;52.436;-1.952;2022-09-17T22:46:17;15.30;56.40
66128;DHT22;52925;52.436;-1.952;2022-09-17T22:47:39;15.20;56.40
66128;DHT22;52925;52.436;-1.952;2022-09-17T22:48:59;15.30;56.50
66128;DHT22;52925;52.436;-1.952;2022-09-17T22:50:19;15.20;56.40
66128;DHT22;52925;52.436;-1.952;2022-09-17T22:51:40;15.20;56.50
66128;DHT22;52925;52.436;-1.952;2022-09-17T22:53:01;15.20;56.60
66128;DHT22;52925;52.436;-1.952;2022-09-17T22:54:20;15.20;56.70
66128;DHT22;52925;52.436;-1.952;2022-09-17T22:55:41;15.20;56.70
66128;DHT22;52925;52.436;-1.952;2022-09-17T22:57:01;15.20;56.60
66128;DHT22;52925;52.436;-1.952;2022-09-17T22:58:23;15.20;56.60
66128;DHT22;52925;52.436;-1.952;2022-09-17T22:59:43;15.20;56.60
66128;DHT22;52925;52.436;-1.952;2022-09-17T23:01:07;15.20;56.70
66128;DHT22;52925;52.436;-1.952;2022-09-17T23:02:27;15.20;56.70
66128;DHT22;52925;52.436;-1.952;2022-09-17T23:03:50;15.20;56.70
66128;DHT22;52925;52.436;-1.952;2022-09-17T23:05:10;15.30;56.70
66128;DHT22;52925;52.436;-1.952;2022-09-17T23:06:35;15.20;56.70
66128;DHT22;52925;52.436;-1.952;2022-09-17T23:07:56;15.30;56.70
66128;DHT22;52925;52.436;-1.952;2022-09-17T23:09:16;15.30;56.70
66128;DHT22;52925;52.436;-1.952;2022-09-17T23:10:37;15.30;56.70
66128;DHT22;52925;52.436;-1.952;2022-09-17T23:11:57;15.20;56.70
66128;DHT22;52925;52.436;-1.952;2022-09-17T23:13:18;15.30;56.70
66128;DHT22;52925;52.436;-1.952;2022-09-17T23:14:39;15.20;56.80
66128;DHT22;52925;52.436;-1.952;2022-09-17T23:16:00;15.30;56.80
66128;DHT22;52925;52.436;-1.952;2022-09-17T23:17:20;15.30;56.70
66128;DHT22;52925;52.436;-1.952;2022-09-17T23:18:41;15.30;56.80
66128;DHT22;52925;52.436;-1.952;2022-09-17T23:20:01;15.30;56.80
66128;DHT22;52925;52.436;-1.952;2022-09-17T23:21:22;15.30;56.80
66128;DHT22;52925;52.436;-1.952;2022-09-17T23:22:42;15.20;56.90
66128;DHT22;52925;52.436;-1.952;2022-09-17T23:24:02;15.20;57.00
66128;DHT22;52925;52.436;-1.952;2022-09-17T23:25:23;15.20;57.00
66128;DHT22;52925;52.436;-1.952;2022-09-17T23:26:43;15.20;57.00
66128;DHT22;52925;52.436;-1.952;2022-09-17T23:28:03;15.20;57.00
66128;DHT22;52925;52.436;-1.952;2022-09-17T23:29:23;15.20;57.00
66128;DHT22;52925;52.436;-1.952;2022-09-17T23:30:45;15.20;57.00
66128;DHT22;52925;52.436;-1.952;2022-09-17T23:32:05;15.20;57.00
66128;DHT22;52925;52.436;-1.952;2022-09-17T23:33:26;15.30;57.00
66128;DHT22;52925;52.436;-1.952;2022-09-17T23:34:47;15.20;57.00
66128;DHT22;52925;52.436;-1.952;2022-09-17T23:36:09;15.30;57.00
66128;DHT22;52925;52.436;-1.952;2022-09-17T23:37:31;15.30;57.00
66128;DHT22;52925;52.436;-1.952;2022-09-17T23:38:53;15.20;57.00
66128;DHT22;52925;52.436;-1.952;2022-09-17T23:40:14;15.20;57.10
66128;DHT22;52925;52.436;-1.952;2022-09-17T23:41:36;15.20;57.10
66128;DHT22;52925;52.436;-1.952;2022-09-17T23:42:58;15.20;57.20
66128;DHT22;52925;52.436;-1.952;2022-09-17T23:44:18;15.20;57.20
66128;DHT22;52925;52.436;-1.952;2022-09-17T23:45:38;15.10;57.20
66128;DHT22;52925;52.436;-1.952;2022-09-17T23:47:00;15.20;57.30
66128;DHT22;52925;52.436;-1.952;2022-09-17T23:48:21;15.10;57.20
66128;DHT22;52925;52.436;-1.952;2022-09-17T23:49:40;15.10;58.00
66128;DHT22;52925;52.436;-1.952;2022-09-17T23:51:01;15.10;57.30
66128;DHT22;52925;52.436;-1.952;2022-09-17T23:52:20;15.10;57.30
66128;DHT22;52925;52.436;-1.952;2022-09-17T23:53:42;15.10;57.30
66128;DHT22;52925;52.436;-1.952;2022-09-17T23:55:02;15.20;57.40
66128;DHT22;52925;52.436;-1.952;2022-09-17T23:56:25;15.10;57.30
66128;DHT22;52925;52.436;-1.952;2022-09-17T23:57:45;15.20;57.30
66128;DHT22;52925;52.436;-1.952;2022-09-17T23:59:05;15.20;57.30
